Time;durP1;ratioP1;P1;durP2;ratioP2;P2;SDS_P1;SDS_P2;PMS_P1;PMS_P2;Temp;Humidity;BMP_temperature;BMP_pressure;BME280_temperature;BME280_humidity;BME280_pressure;Samples;Min_cycle;Max_cycle;Signal;HPM_P1;HPM_P2
2022/10/14 00:00:27;0.00;0.00;0.62;0.00;0.00;0.62;1.53;0.97;;;28.20;25.90;;;;;;2262467;61;20363;-63
2022/10/14 00:03:13;0.00;0.00;0.62;0.00;0.00;0.62;1.50;1.03;;;28.20;25.90;;;;;;2265511;61;20496;-63
2022/10/14 00:05:58;0.00;0.00;0.62;0.00;0.00;0.62;1.57;1.10;;;28.20;25.90;;;;;;2264977;61;20381;-65
2022/10/14 00:08:43;0.00;0.00;0.62;0.00;0.00;0.62;1.40;0.90;;;28.20;25.90;;;;;;2265221;61;20744;-64
2022/10/14 00:11:35;0.00;0.00;0.62;0.00;0.00;0.62;1.40;0.90;;;28.20;25.90;;;;;;2265152;61;20381;-66
2022/10/14 00:14:21;0.00;0.00;0.62;0.00;0.00;0.62;1.50;1.10;;;28.20;26.00;;;;;;2264862;61;20396;-66
2022/10/14 00:17:07;0.00;0.00;0.62;0.00;0.00;0.62;1.53;1.10;;;28.20;26.00;;;;;;2265543;61;20427;-66
2022/10/14 00:19:53;0.00;0.00;0.62;0.00;0.00;0.62;1.80;1.20;;;28.20;26.00;;;;;;2390379;53;20457;-65
2022/10/14 00:22:38;0.00;0.00;0.62;0.00;0.00;0.62;1.83;1.50;;;28.20;26.00;;;;;;2263802;61;20490;-64
2022/10/14 00:25:25;0.00;0.00;0.62;0.00;0.00;0.62;2.43;1.70;;;28.20;26.00;;;;;;2264551;61;20385;-65
2022/10/14 00:28:09;0.00;0.00;0.62;0.00;0.00;0.62;6.30;2.53;;;28.20;26.00;;;;;;2392935;53;20420;-64
2022/10/14 00:30:55;0.00;0.00;0.62;0.00;0.00;0.62;2.30;1.80;;;28.20;26.00;;;;;;2264761;61;20420;-64
2022/10/14 00:33:40;0.00;0.00;0.62;0.00;0.00;0.62;3.50;2.90;;;28.20;26.00;;;;;;2286944;61;20825;-64
2022/10/14 00:36:27;0.00;0.00;0.62;0.00;0.00;0.62;3.00;2.70;;;28.10;26.00;;;;;;2264715;61;20360;-67
2022/10/14 00:39:12;0.00;0.00;0.62;0.00;0.00;0.62;4.10;2.80;;;28.10;26.00;;;;;;2265638;61;20381;-64
2022/10/14 00:41:56;0.00;0.00;0.62;0.00;0.00;0.62;3.70;3.20;;;28.10;26.00;;;;;;2264949;61;20369;-64
2022/10/14 00:45:10;0.00;0.00;0.62;0.00;0.00;0.62;3.50;3.20;;;28.10;26.00;;;;;;2264416;61;20756;-67
2022/10/14 00:47:55;0.00;0.00;0.62;0.00;0.00;0.62;3.87;3.00;;;28.10;26.00;;;;;;2263376;61;20784;-65
2022/10/14 00:50:44;0.00;0.00;0.62;0.00;0.00;0.62;4.77;4.37;;;28.10;26.00;;;;;;2408479;53;20369;-64
2022/10/14 00:53:30;0.00;0.00;0.62;0.00;0.00;0.62;3.83;3.43;;;28.00;26.00;;;;;;2265085;61;20381;-67
2022/10/14 00:56:22;0.00;0.00;0.62;0.00;0.00;0.62;4.50;4.10;;;28.00;26.00;;;;;;2264633;61;20833;-68
2022/10/14 00:59:07;0.00;0.00;0.62;0.00;0.00;0.62;4.53;4.13;;;28.00;26.10;;;;;;2264076;61;20399;-67
2022/10/14 01:01:52;0.00;0.00;0.62;0.00;0.00;0.62;4.67;4.17;;;28.00;26.10;;;;;;2265356;61;20437;-67
2022/10/14 01:04:41;0.00;0.00;0.62;0.00;0.00;0.62;4.27;3.87;;;28.00;26.10;;;;;;2264904;61;20435;-66
2022/10/14 01:07:42;0.00;0.00;0.62;0.00;0.00;0.62;5.77;4.63;;;27.90;26.10;;;;;;2264454;61;20372;-65
2022/10/14 01:10:39;0.00;0.00;0.62;0.00;0.00;0.62;4.20;3.80;;;27.90;26.20;;;;;;2265354;61;20404;-64
2022/10/14 01:13:29;0.00;0.00;0.62;0.00;0.00;0.62;5.53;4.10;;;27.90;26.20;;;;;;2455730;45;20999;-65
2022/10/14 01:16:22;0.00;0.00;0.62;0.00;0.00;0.62;5.60;3.80;;;27.90;26.30;;;;;;2266166;61;21046;-63
2022/10/14 01:19:37;0.00;0.00;0.62;0.00;0.00;0.62;4.40;3.50;;;27.90;26.30;;;;;;2265599;61;20372;-64
2022/10/14 01:22:30;0.00;0.00;0.62;0.00;0.00;0.62;4.23;3.83;;;27.80;26.30;;;;;;2265089;61;20623;-66
2022/10/14 01:25:23;0.00;0.00;0.62;0.00;0.00;0.62;4.63;4.00;;;27.80;26.30;;;;;;2264456;61;20393;-65
2022/10/14 01:28:27;0.00;0.00;0.62;0.00;0.00;0.62;3.67;3.30;;;27.80;26.30;;;;;;2395030;53;20384;-66
2022/10/14 01:31:19;0.00;0.00;0.62;0.00;0.00;0.62;5.43;3.53;;;27.80;26.30;;;;;;2581041;45;20373;-68
2022/10/14 01:34:09;0.00;0.00;0.62;0.00;0.00;0.62;4.53;4.10;;;27.80;26.40;;;;;;2322164;58;20400;-66
2022/10/14 01:37:00;0.00;0.00;0.62;0.00;0.00;0.62;4.33;3.40;;;27.70;26.30;;;;;;2265328;61;20483;-66
2022/10/14 01:39:51;0.00;0.00;0.62;0.00;0.00;0.62;4.00;3.60;;;27.70;26.30;;;;;;2265608;61;20415;-66
2022/10/14 01:42:39;0.00;0.00;0.62;0.00;0.00;0.62;5.87;3.90;;;27.70;26.40;;;;;;2406368;53;20733;-65
2022/10/14 01:45:26;0.00;0.00;0.62;0.00;0.00;0.62;3.87;3.37;;;27.70;26.40;;;;;;2265309;61;20381;-68
2022/10/14 01:48:16;0.00;0.00;0.62;0.00;0.00;0.62;4.13;3.73;;;27.70;26.40;;;;;;2267888;61;20760;-66
2022/10/14 01:51:07;0.00;0.00;0.62;0.00;0.00;0.62;3.97;3.60;;;27.70;26.40;;;;;;2265204;61;20481;-63
2022/10/14 01:53:59;0.00;0.00;0.62;0.00;0.00;0.62;3.60;3.30;;;27.60;26.40;;;;;;2416158;53;20436;-62
2022/10/14 01:56:45;0.00;0.00;0.62;0.00;0.00;0.62;4.13;3.73;;;27.60;26.40;;;;;;2265272;61;20412;-64
2022/10/14 01:59:32;0.00;0.00;0.62;0.00;0.00;0.62;4.10;3.70;;;27.60;26.40;;;;;;2267188;61;20619;-66
2022/10/14 02:02:18;0.00;0.00;0.62;0.00;0.00;0.62;5.10;3.40;;;27.60;26.40;;;;;;2268190;61;20762;-65
2022/10/14 02:05:10;0.00;0.00;0.62;0.00;0.00;0.62;4.70;4.03;;;27.60;26.40;;;;;;2265472;61;20608;-65
2022/10/14 02:08:03;0.00;0.00;0.62;0.00;0.00;0.62;4.10;3.70;;;27.60;26.50;;;;;;2265613;61;20404;-65
2022/10/14 02:11:05;0.00;0.00;0.62;0.00;0.00;0.62;3.77;3.40;;;27.60;26.50;;;;;;2265643;61;20396;-66
2022/10/14 02:14:10;0.00;0.00;0.62;0.00;0.00;0.62;5.23;3.80;;;27.60;26.50;;;;;;2267102;61;20434;-67
2022/10/14 02:17:00;0.00;0.00;0.62;0.00;0.00;0.62;4.53;3.70;;;27.50;26.40;;;;;;2266043;61;20372;-65
2022/10/14 02:19:52;0.00;0.00;0.62;0.00;0.00;0.62;5.03;4.03;;;27.50;26.50;;;;;;2265518;61;20572;-67
2022/10/14 02:22:44;0.00;0.00;0.62;0.00;0.00;0.62;4.43;4.03;;;27.60;26.50;;;;;;2265337;61;20368;-65
2022/10/14 02:25:33;0.00;0.00;0.62;0.00;0.00;0.62;3.87;3.57;;;27.50;26.50;;;;;;2265581;61;20388;-68
2022/10/14 02:28:22;0.00;0.00;0.62;0.00;0.00;0.62;4.40;3.97;;;27.50;26.50;;;;;;2264504;61;20424;-66
2022/10/14 02:31:12;0.00;0.00;0.62;0.00;0.00;0.62;4.30;3.90;;;27.50;26.50;;;;;;2265898;61;20361;-65
2022/10/14 02:34:06;0.00;0.00;0.62;0.00;0.00;0.62;4.03;3.27;;;27.50;26.50;;;;;;2268452;61;20385;-66
2022/10/14 02:36:53;0.00;0.00;0.62;0.00;0.00;0.62;4.73;4.20;;;27.50;26.60;;;;;;2265327;61;20755;-67
2022/10/14 02:39:47;0.00;0.00;0.62;0.00;0.00;0.62;4.80;4.40;;;27.50;26.60;;;;;;2265453;61;20412;-65
2022/10/14 02:42:32;0.00;0.00;0.62;0.00;0.00;0.62;4.40;4.00;;;27.50;26.70;;;;;;2524964;45;20365;-65
2022/10/14 02:45:18;0.00;0.00;0.62;0.00;0.00;0.62;6.60;4.10;;;27.50;26.70;;;;;;2265261;61;20439;-65
2022/10/14 02:48:04;0.00;0.00;0.62;0.00;0.00;0.62;4.43;3.77;;;27.50;26.80;;;;;;2264901;61;20389;-68
2022/10/14 02:50:51;0.00;0.00;0.62;0.00;0.00;0.62;8.90;4.10;;;27.50;26.70;;;;;;2391112;53;20376;-65
2022/10/14 02:53:35;0.00;0.00;0.62;0.00;0.00;0.62;4.20;3.80;;;27.50;26.70;;;;;;2265668;61;20372;-66
2022/10/14 02:56:22;0.00;0.00;0.62;0.00;0.00;0.62;4.00;3.53;;;27.50;26.70;;;;;;2264993;61;20373;-64
2022/10/14 02:59:07;0.00;0.00;0.62;0.00;0.00;0.62;4.20;3.80;;;27.50;26.90;;;;;;2264791;61;20744;-65
2022/10/14 03:01:52;0.00;0.00;0.62;0.00;0.00;0.62;5.00;3.87;;;27.50;27.30;;;;;;2267570;61;20399;-68
2022/10/14 03:04:39;0.00;0.00;0.62;0.00;0.00;0.62;4.10;3.70;;;27.40;26.70;;;;;;2261734;61;20636;-64
2022/10/14 03:07:24;0.00;0.00;0.62;0.00;0.00;0.62;4.10;3.70;;;27.40;26.70;;;;;;2265510;61;20376;-66
2022/10/14 03:10:11;0.00;0.00;0.62;0.00;0.00;0.62;4.53;3.80;;;27.50;26.80;;;;;;2409488;53;20361;-67
2022/10/14 03:12:57;0.00;0.00;0.62;0.00;0.00;0.62;4.13;3.80;;;27.40;26.80;;;;;;2264394;61;20445;-67
2022/10/14 03:15:49;0.00;0.00;0.62;0.00;0.00;0.62;3.87;3.57;;;27.40;26.80;;;;;;2265694;61;20369;-67
2022/10/14 03:18:34;0.00;0.00;0.62;0.00;0.00;0.62;4.93;4.50;;;27.40;26.80;;;;;;2264749;61;20391;-65
2022/10/14 03:21:27;0.00;0.00;0.62;0.00;0.00;0.62;3.83;3.50;;;27.40;26.90;;;;;;2416179;53;20760;-66
2022/10/14 03:24:12;0.00;0.00;0.62;0.00;0.00;0.62;4.10;3.70;;;27.40;26.80;;;;;;2261777;61;20749;-65
2022/10/14 03:26:58;0.00;0.00;0.62;0.00;0.00;0.62;4.40;4.00;;;27.40;26.90;;;;;;2264360;61;20360;-67
2022/10/14 03:29:46;0.00;0.00;0.62;0.00;0.00;0.62;4.63;4.13;;;27.40;26.90;;;;;;2395799;53;20601;-66
2022/10/14 03:32:36;0.00;0.00;0.62;0.00;0.00;0.62;4.60;4.20;;;27.40;26.90;;;;;;2264573;61;20376;-63
2022/10/14 03:35:44;0.00;0.00;0.62;0.00;0.00;0.62;3.97;3.60;;;27.30;26.90;;;;;;2264787;61;20376;-65
2022/10/14 03:38:33;0.00;0.00;0.62;0.00;0.00;0.62;4.60;4.00;;;27.40;27.00;;;;;;2264981;61;20624;-66
2022/10/14 03:41:19;0.00;0.00;0.62;0.00;0.00;0.62;4.87;3.30;;;27.30;26.90;;;;;;2264503;61;20475;-65
2022/10/14 03:44:05;0.00;0.00;0.62;0.00;0.00;0.62;4.00;3.60;;;27.30;26.90;;;;;;2262180;61;20760;-66
2022/10/14 03:46:53;0.00;0.00;0.62;0.00;0.00;0.62;4.07;3.67;;;27.30;26.90;;;;;;2264805;61;20391;-63
2022/10/14 03:49:45;0.00;0.00;0.62;0.00;0.00;0.62;3.80;3.50;;;27.30;26.90;;;;;;2264387;61;20442;-67
2022/10/14 03:52:39;0.00;0.00;0.62;0.00;0.00;0.62;4.03;3.23;;;27.30;26.90;;;;;;2265180;61;20423;-65
2022/10/14 03:55:34;0.00;0.00;0.62;0.00;0.00;0.62;4.00;3.60;;;27.30;27.00;;;;;;2407338;53;20376;-66
2022/10/14 03:58:21;0.00;0.00;0.62;0.00;0.00;0.62;3.93;3.53;;;27.30;27.00;;;;;;2264671;61;20412;-66
2022/10/14 04:01:10;0.00;0.00;0.62;0.00;0.00;0.62;4.07;3.67;;;27.30;27.00;;;;;;2267462;61;20503;-67
2022/10/14 04:04:16;0.00;0.00;0.62;0.00;0.00;0.62;4.73;4.23;;;27.20;26.90;;;;;;2267010;61;20516;-66
2022/10/14 04:07:01;0.00;0.00;0.62;0.00;0.00;0.62;5.07;3.80;;;27.20;26.90;;;;;;2563685;45;20451;-67
2022/10/14 04:09:46;0.00;0.00;0.62;0.00;0.00;0.62;4.43;4.03;;;27.30;27.50;;;;;;2267488;61;20462;-65
2022/10/14 04:12:32;0.00;0.00;0.62;0.00;0.00;0.62;4.20;3.80;;;27.20;27.00;;;;;;2264846;61;20396;-66
2022/10/14 04:15:34;0.00;0.00;0.62;0.00;0.00;0.62;4.90;3.70;;;27.20;27.00;;;;;;2264822;61;20393;-65
2022/10/14 04:18:34;0.00;0.00;0.62;0.00;0.00;0.62;4.37;3.77;;;27.20;27.00;;;;;;2264626;61;20368;-65
2022/10/14 04:21:22;0.00;0.00;0.62;0.00;0.00;0.62;4.10;3.70;;;27.20;27.10;;;;;;2264984;61;20377;-64
2022/10/14 04:24:09;0.00;0.00;0.62;0.00;0.00;0.62;4.20;3.73;;;27.20;27.10;;;;;;2264435;61;20757;-66
2022/10/14 04:27:02;0.00;0.00;0.62;0.00;0.00;0.62;3.70;3.30;;;27.10;27.00;;;;;;2264320;61;20422;-64
2022/10/14 04:29:57;0.00;0.00;0.62;0.00;0.00;0.62;4.50;3.80;;;27.20;27.10;;;;;;2265208;61;20593;-65
2022/10/14 04:32:47;0.00;0.00;0.62;0.00;0.00;0.62;3.70;3.30;;;27.10;27.10;;;;;;2264472;61;20460;-66
2022/10/14 04:35:32;0.00;0.00;0.62;0.00;0.00;0.62;4.20;3.80;;;27.10;27.10;;;;;;2262141;61;20764;-66
2022/10/14 04:38:18;0.00;0.00;0.62;0.00;0.00;0.62;4.00;3.33;;;27.10;27.10;;;;;;2265123;61;20411;-68
2022/10/14 04:41:10;0.00;0.00;0.62;0.00;0.00;0.62;4.33;3.93;;;27.10;27.10;;;;;;2519741;45;20368;-62
2022/10/14 04:44:01;0.00;0.00;0.62;0.00;0.00;0.62;3.83;3.53;;;27.10;27.10;;;;;;2267599;61;20623;-65
2022/10/14 04:47:02;0.00;0.00;0.62;0.00;0.00;0.62;4.20;3.80;;;27.10;27.10;;;;;;2265000;61;20744;-66
2022/10/14 04:49:48;0.00;0.00;0.62;0.00;0.00;0.62;4.10;3.67;;;27.10;27.20;;;;;;2265467;61;20443;-66
2022/10/14 04:52:37;0.00;0.00;0.62;0.00;0.00;0.62;4.20;3.67;;;27.10;27.20;;;;;;2264948;61;20361;-64
2022/10/14 04:55:28;0.00;0.00;0.62;0.00;0.00;0.62;4.67;3.73;;;27.10;27.20;;;;;;2265249;61;20420;-67
2022/10/14 04:58:14;0.00;0.00;0.62;0.00;0.00;0.62;4.63;3.80;;;27.10;27.20;;;;;;2268163;61;20438;-65
2022/10/14 05:01:00;0.00;0.00;0.62;0.00;0.00;0.62;4.23;3.83;;;27.00;27.20;;;;;;2261095;61;20382;-68
2022/10/14 05:03:52;0.00;0.00;0.62;0.00;0.00;0.62;4.47;3.70;;;27.10;27.30;;;;;;2385629;53;20396;-68
2022/10/14 05:06:38;0.00;0.00;0.62;0.00;0.00;0.62;4.47;4.00;;;27.00;27.20;;;;;;2265642;61;20380;-65
2022/10/14 05:09:25;0.00;0.00;0.62;0.00;0.00;0.62;4.90;4.40;;;27.00;27.20;;;;;;2265014;61;20438;-65
2022/10/14 05:12:13;0.00;0.00;0.62;0.00;0.00;0.62;4.80;4.30;;;27.00;27.20;;;;;;2265588;61;20754;-63
2022/10/14 05:15:06;0.00;0.00;0.62;0.00;0.00;0.62;5.30;4.20;;;27.00;27.20;;;;;;2457626;45;20384;-62
2022/10/14 05:18:05;0.00;0.00;0.62;0.00;0.00;0.62;5.50;4.40;;;27.00;27.20;;;;;;2264651;61;20782;-66
2022/10/14 05:21:07;0.00;0.00;0.62;0.00;0.00;0.62;4.20;3.80;;;27.00;27.20;;;;;;2268313;61;20377;-67
2022/10/14 05:24:17;0.00;0.00;0.62;0.00;0.00;0.62;5.53;4.47;;;27.00;27.30;;;;;;2259589;61;20431;-67
2022/10/14 05:27:03;0.00;0.00;0.62;0.00;0.00;0.62;4.10;3.70;;;27.00;27.30;;;;;;2263763;61;20704;-66
2022/10/14 05:29:51;0.00;0.00;0.62;0.00;0.00;0.62;4.70;4.27;;;27.00;27.40;;;;;;2265313;61;20431;-64
2022/10/14 05:32:36;0.00;0.00;0.62;0.00;0.00;0.62;5.60;4.97;;;27.00;27.40;;;;;;2264682;61;20381;-63
2022/10/14 05:35:23;0.00;0.00;0.62;0.00;0.00;0.62;5.13;4.63;;;27.00;27.40;;;;;;2268381;61;20397;-67
2022/10/14 05:38:09;0.00;0.00;0.62;0.00;0.00;0.62;4.60;4.20;;;27.00;27.40;;;;;;2267994;61;20364;-65
2022/10/14 05:40:57;0.00;0.00;0.62;0.00;0.00;0.62;5.03;4.53;;;27.00;27.50;;;;;;2411920;53;20389;-66
2022/10/14 05:43:42;0.00;0.00;0.62;0.00;0.00;0.62;5.33;4.83;;;27.00;27.50;;;;;;2268229;61;20451;-62
2022/10/14 05:46:29;0.00;0.00;0.62;0.00;0.00;0.62;5.17;4.67;;;26.90;27.40;;;;;;2267751;61;20769;-65
2022/10/14 05:49:14;0.00;0.00;0.62;0.00;0.00;0.62;4.17;3.77;;;26.90;27.50;;;;;;2539624;45;20721;-65
2022/10/14 05:52:00;0.00;0.00;0.62;0.00;0.00;0.62;6.53;5.00;;;26.90;27.50;;;;;;2264634;61;20392;-63
2022/10/14 05:54:46;0.00;0.00;0.62;0.00;0.00;0.62;5.43;4.93;;;26.90;27.50;;;;;;2265812;61;20389;-62
2022/10/14 05:57:35;0.00;0.00;0.62;0.00;0.00;0.62;4.30;3.90;;;26.90;27.50;;;;;;2268289;61;20377;-64
2022/10/14 06:00:20;0.00;0.00;0.62;0.00;0.00;0.62;5.33;4.83;;;26.90;27.50;;;;;;2408817;53;20570;-66
2022/10/14 06:03:12;0.00;0.00;0.62;0.00;0.00;0.62;4.33;3.93;;;26.90;27.50;;;;;;2264399;61;20408;-63
2022/10/14 06:05:58;0.00;0.00;0.62;0.00;0.00;0.62;5.77;4.60;;;26.90;27.50;;;;;;2265734;61;20363;-66
2022/10/14 06:08:43;0.00;0.00;0.62;0.00;0.00;0.62;7.10;4.90;;;26.90;27.60;;;;;;2264891;61;20384;-64
2022/10/14 06:11:29;0.00;0.00;0.62;0.00;0.00;0.62;4.97;4.47;;;26.90;28.00;;;;;;2265043;61;20778;-62
2022/10/14 06:14:13;0.00;0.00;0.62;0.00;0.00;0.62;4.70;4.30;;;26.90;27.50;;;;;;2265156;61;20795;-62
2022/10/14 06:16:58;0.00;0.00;0.62;0.00;0.00;0.62;6.80;5.00;;;26.90;27.50;;;;;;2264766;61;20380;-63
2022/10/14 06:19:44;0.00;0.00;0.62;0.00;0.00;0.62;4.33;3.87;;;26.90;27.60;;;;;;2411448;53;20579;-68
2022/10/14 06:22:29;0.00;0.00;0.62;0.00;0.00;0.62;4.17;3.77;;;26.80;27.50;;;;;;2265377;61;20365;-69
2022/10/14 06:25:14;0.00;0.00;0.62;0.00;0.00;0.62;4.77;4.23;;;26.90;27.60;;;;;;2265011;61;20424;-66
2022/10/14 06:28:02;0.00;0.00;0.62;0.00;0.00;0.62;4.80;4.20;;;26.90;27.60;;;;;;2413843;53;20360;-68
2022/10/14 06:30:49;0.00;0.00;0.62;0.00;0.00;0.62;5.07;4.57;;;26.90;27.60;;;;;;2265624;61;20369;-68
2022/10/14 06:33:34;0.00;0.00;0.62;0.00;0.00;0.62;4.90;4.50;;;26.90;27.60;;;;;;2335743;53;20472;-68
2022/10/14 06:36:21;0.00;0.00;0.62;0.00;0.00;0.62;5.17;4.67;;;26.90;27.60;;;;;;2385592;53;20389;-67
2022/10/14 06:39:06;0.00;0.00;0.62;0.00;0.00;0.62;6.60;4.50;;;26.90;27.60;;;;;;2265323;61;20361;-65
2022/10/14 06:41:52;0.00;0.00;0.62;0.00;0.00;0.62;4.27;3.87;;;26.90;27.60;;;;;;2265978;61;20709;-65
2022/10/14 06:44:37;0.00;0.00;0.62;0.00;0.00;0.62;4.43;4.03;;;26.90;27.60;;;;;;2267816;61;20404;-66
2022/10/14 06:47:21;0.00;0.00;0.62;0.00;0.00;0.62;4.83;4.20;;;26.90;27.60;;;;;;2264937;61;20468;-68
2022/10/14 06:50:07;0.00;0.00;0.62;0.00;0.00;0.62;4.87;4.43;;;26.90;27.60;;;;;;2266120;61;20388;-65
2022/10/14 06:52:53;0.00;0.00;0.62;0.00;0.00;0.62;4.80;4.30;;;26.90;27.70;;;;;;2265313;61;20780;-65
2022/10/14 06:55:39;0.00;0.00;0.62;0.00;0.00;0.62;5.63;4.93;;;26.90;27.60;;;;;;2267773;61;20670;-64
2022/10/14 06:58:23;0.00;0.00;0.62;0.00;0.00;0.62;4.83;4.40;;;26.90;27.60;;;;;;2264495;61;20385;-63
2022/10/14 07:01:08;0.00;0.00;0.62;0.00;0.00;0.62;5.03;4.53;;;26.90;27.70;;;;;;2263490;61;20404;-66
2022/10/14 07:03:53;0.00;0.00;0.62;0.00;0.00;0.62;5.23;4.73;;;26.90;27.70;;;;;;2384647;53;20388;-67
2022/10/14 07:06:39;0.00;0.00;0.62;0.00;0.00;0.62;6.57;4.60;;;26.90;27.70;;;;;;2265524;61;20377;-65
2022/10/14 07:09:24;0.00;0.00;0.62;0.00;0.00;0.62;6.23;5.73;;;26.90;28.20;;;;;;2264791;61;20412;-65
2022/10/14 07:12:09;0.00;0.00;0.62;0.00;0.00;0.62;4.83;4.40;;;26.80;27.70;;;;;;2265738;61;20372;-66
2022/10/14 07:14:54;0.00;0.00;0.62;0.00;0.00;0.62;5.40;4.60;;;26.90;27.70;;;;;;2264831;61;20412;-64
2022/10/14 07:17:38;0.00;0.00;0.62;0.00;0.00;0.62;5.00;4.50;;;26.90;27.70;;;;;;2264910;61;20384;-66
2022/10/14 07:20:23;0.00;0.00;0.62;0.00;0.00;0.62;5.27;4.77;;;26.90;27.70;;;;;;2265305;61;20385;-68
2022/10/14 07:23:07;0.00;0.00;0.62;0.00;0.00;0.62;6.03;4.97;;;26.90;28.20;;;;;;2587678;45;20373;-69
2022/10/14 07:25:57;0.00;0.00;0.62;0.00;0.00;0.62;5.43;4.90;;;26.90;27.70;;;;;;2265566;61;20368;-63
2022/10/14 07:28:41;0.00;0.00;0.62;0.00;0.00;0.62;5.43;4.73;;;26.80;27.70;;;;;;2264964;61;20713;-69
2022/10/14 07:31:28;0.00;0.00;0.62;0.00;0.00;0.62;5.00;4.60;;;26.90;27.70;;;;;;2539934;45;20427;-69
2022/10/14 07:34:13;0.00;0.00;0.62;0.00;0.00;0.62;6.70;5.70;;;26.90;27.80;;;;;;2265519;61;20384;-66
2022/10/14 07:36:58;0.00;0.00;0.62;0.00;0.00;0.62;6.07;5.40;;;26.90;27.70;;;;;;2265140;61;20666;-64
2022/10/14 07:39:43;0.00;0.00;0.62;0.00;0.00;0.62;5.80;5.20;;;26.90;27.70;;;;;;2265129;61;20582;-64
2022/10/14 07:42:29;0.00;0.00;0.62;0.00;0.00;0.62;5.80;5.30;;;26.90;27.80;;;;;;2264572;61;20415;-64
2022/10/14 07:45:16;0.00;0.00;0.62;0.00;0.00;0.62;5.03;4.57;;;26.90;27.70;;;;;;2264559;61;20393;-65
2022/10/14 07:48:01;0.00;0.00;0.62;0.00;0.00;0.62;6.10;4.90;;;26.90;27.70;;;;;;2264339;61;20390;-65
2022/10/14 07:50:49;0.00;0.00;0.62;0.00;0.00;0.62;5.73;4.13;;;26.90;27.70;;;;;;2527626;45;20585;-62
2022/10/14 07:53:35;0.00;0.00;0.62;0.00;0.00;0.62;5.60;5.10;;;26.90;27.70;;;;;;2263220;61;20375;-67
2022/10/14 07:56:21;0.00;0.00;0.62;0.00;0.00;0.62;5.17;4.67;;;26.90;27.70;;;;;;2265286;61;20368;-64
2022/10/14 07:59:08;0.00;0.00;0.62;0.00;0.00;0.62;4.40;4.00;;;27.00;27.80;;;;;;2265090;61;20622;-66
2022/10/14 08:01:55;0.00;0.00;0.62;0.00;0.00;0.62;4.73;4.23;;;27.00;27.80;;;;;;2263801;61;20377;-67
2022/10/14 08:04:40;0.00;0.00;0.62;0.00;0.00;0.62;4.90;4.30;;;27.00;27.80;;;;;;2266837;61;20443;-66
2022/10/14 08:07:25;0.00;0.00;0.62;0.00;0.00;0.62;5.40;4.60;;;27.00;27.80;;;;;;2265103;61;20369;-69
2022/10/14 08:10:10;0.00;0.00;0.62;0.00;0.00;0.62;5.00;4.50;;;27.00;27.80;;;;;;2440171;53;20384;-68
2022/10/14 08:12:56;0.00;0.00;0.62;0.00;0.00;0.62;4.77;4.37;;;27.00;27.80;;;;;;2265061;61;20369;-66
2022/10/14 08:15:42;0.00;0.00;0.62;0.00;0.00;0.62;6.20;4.30;;;27.00;27.80;;;;;;2264454;61;20435;-67
2022/10/14 08:18:27;0.00;0.00;0.62;0.00;0.00;0.62;4.60;4.20;;;27.00;27.70;;;;;;2290143;61;20388;-65
2022/10/14 08:21:13;0.00;0.00;0.62;0.00;0.00;0.62;5.10;4.70;;;27.00;27.80;;;;;;2265131;61;20744;-64
2022/10/14 08:23:58;0.00;0.00;0.62;0.00;0.00;0.62;4.43;3.90;;;27.00;27.70;;;;;;2264468;61;20465;-64
2022/10/14 08:26:50;0.00;0.00;0.62;0.00;0.00;0.62;4.53;3.73;;;27.00;27.80;;;;;;2265800;61;20759;-66
2022/10/14 08:29:35;0.00;0.00;0.62;0.00;0.00;0.62;4.03;3.63;;;27.00;27.80;;;;;;2590750;45;20396;-67
2022/10/14 08:32:22;0.00;0.00;0.62;0.00;0.00;0.62;3.57;2.97;;;27.10;27.80;;;;;;2265062;61;20422;-66
2022/10/14 08:35:08;0.00;0.00;0.62;0.00;0.00;0.62;4.10;3.70;;;27.10;27.80;;;;;;2265155;61;20826;-67
2022/10/14 08:37:57;0.00;0.00;0.62;0.00;0.00;0.62;4.00;3.60;;;27.10;27.80;;;;;;2545271;45;20415;-68
2022/10/14 08:40:58;0.00;0.00;0.62;0.00;0.00;0.62;3.60;3.30;;;27.10;27.80;;;;;;2265508;61;20389;-66
2022/10/14 08:43:51;0.00;0.00;0.62;0.00;0.00;0.62;3.80;3.40;;;27.20;27.80;;;;;;2264715;61;20493;-68
2022/10/14 08:46:39;0.00;0.00;0.62;0.00;0.00;0.62;3.90;3.50;;;27.20;27.80;;;;;;2264834;61;20732;-69
2022/10/14 08:49:34;0.00;0.00;0.62;0.00;0.00;0.62;3.50;3.20;;;27.20;27.80;;;;;;2265228;61;20776;-70
2022/10/14 08:52:25;0.00;0.00;0.62;0.00;0.00;0.62;3.33;3.03;;;27.20;27.80;;;;;;2411294;53;20372;-66
2022/10/14 08:55:22;0.00;0.00;0.62;0.00;0.00;0.62;4.00;3.50;;;27.20;27.80;;;;;;2265514;61;20431;-66
2022/10/14 08:58:14;0.00;0.00;0.62;0.00;0.00;0.62;4.63;3.93;;;27.30;27.90;;;;;;2267451;61;20395;-66
2022/10/14 09:01:09;0.00;0.00;0.62;0.00;0.00;0.62;5.20;4.70;;;27.20;27.80;;;;;;2264550;61;20444;-66
2022/10/14 09:03:58;0.00;0.00;0.62;0.00;0.00;0.62;5.70;4.33;;;27.30;27.90;;;;;;2488756;45;20456;-70
2022/10/14 09:06:47;0.00;0.00;0.62;0.00;0.00;0.62;4.73;4.27;;;27.30;27.90;;;;;;2265048;61;20388;-65
2022/10/14 09:09:42;0.00;0.00;0.62;0.00;0.00;0.62;5.13;4.40;;;27.40;27.90;;;;;;2265128;61;20781;-69
2022/10/14 09:12:31;0.00;0.00;0.62;0.00;0.00;0.62;4.73;3.80;;;27.40;27.90;;;;;;2264757;61;20570;-65
2022/10/14 09:15:21;0.00;0.00;0.62;0.00;0.00;0.62;4.30;3.80;;;27.40;27.90;;;;;;2547908;45;20424;-71
2022/10/14 09:18:18;0.00;0.00;0.62;0.00;0.00;0.62;4.33;3.90;;;27.40;27.90;;;;;;2265506;61;20408;-66
2022/10/14 09:21:29;0.00;0.00;0.62;0.00;0.00;0.62;4.40;4.00;;;27.50;27.90;;;;;;2264672;61;20369;-64
2022/10/14 09:24:20;0.00;0.00;0.62;0.00;0.00;0.62;5.17;4.03;;;27.50;27.90;;;;;;2264823;61;20608;-68
2022/10/14 09:27:16;0.00;0.00;0.62;0.00;0.00;0.62;4.67;3.70;;;27.50;27.90;;;;;;2265071;61;20366;-67
2022/10/14 09:30:09;0.00;0.00;0.62;0.00;0.00;0.62;4.23;3.83;;;27.60;27.90;;;;;;2262637;61;20424;-68
2022/10/14 09:32:54;0.00;0.00;0.62;0.00;0.00;0.62;3.87;3.20;;;27.60;27.90;;;;;;2340488;58;20592;-67
2022/10/14 09:35:41;0.00;0.00;0.62;0.00;0.00;0.62;3.80;3.40;;;27.60;27.80;;;;;;2265590;61;20415;-66
2022/10/14 09:38:26;0.00;0.00;0.62;0.00;0.00;0.62;3.77;3.37;;;27.60;27.80;;;;;;2265651;61;20373;-69
2022/10/14 09:41:14;0.00;0.00;0.62;0.00;0.00;0.62;3.77;3.00;;;27.70;27.90;;;;;;2514885;45;20364;-67
2022/10/14 09:44:20;0.00;0.00;0.62;0.00;0.00;0.62;3.67;3.27;;;27.70;27.80;;;;;;2265329;61;20520;-67
2022/10/14 09:47:11;0.00;0.00;0.62;0.00;0.00;0.62;3.67;3.27;;;27.70;27.80;;;;;;2266228;61;20408;-70
2022/10/14 09:49:59;0.00;0.00;0.62;0.00;0.00;0.62;3.47;3.17;;;27.70;27.80;;;;;;2265013;61;20415;-65
2022/10/14 09:52:51;0.00;0.00;0.62;0.00;0.00;0.62;3.30;2.70;;;27.70;27.80;;;;;;2265183;61;20741;-66
2022/10/14 09:55:38;0.00;0.00;0.62;0.00;0.00;0.62;2.77;2.43;;;27.80;27.70;;;;;;2542912;45;20420;-67
2022/10/14 09:58:32;0.00;0.00;0.62;0.00;0.00;0.62;3.50;3.03;;;27.80;27.70;;;;;;2264455;61;20446;-69
2022/10/14 10:01:19;0.00;0.00;0.62;0.00;0.00;0.62;3.30;2.73;;;27.80;27.70;;;;;;2264729;61;20599;-69
2022/10/14 10:04:26;0.00;0.00;0.62;0.00;0.00;0.62;5.07;3.60;;;27.80;27.70;;;;;;2265546;61;20804;-71
2022/10/14 10:07:27;0.00;0.00;0.62;0.00;0.00;0.62;3.40;3.10;;;27.80;27.70;;;;;;2264751;61;20369;-69
2022/10/14 10:10:19;0.00;0.00;0.62;0.00;0.00;0.62;3.57;3.27;;;27.90;27.80;;;;;;2539287;45;20381;-69
2022/10/14 10:13:20;0.00;0.00;0.62;0.00;0.00;0.62;3.30;2.97;;;27.90;27.80;;;;;;2266973;61;20430;-65
2022/10/14 10:16:18;0.00;0.00;0.62;0.00;0.00;0.62;4.07;3.67;;;27.90;27.80;;;;;;2265834;61;20403;-68
2022/10/14 10:19:26;0.00;0.00;0.62;0.00;0.00;0.62;3.03;2.57;;;28.00;27.80;;;;;;2265605;61;20620;-64
2022/10/14 10:22:25;0.00;0.00;0.62;0.00;0.00;0.62;3.00;2.60;;;28.00;27.80;;;;;;2267413;61;20422;-67
2022/10/14 10:25:25;0.00;0.00;0.62;0.00;0.00;0.62;3.33;2.83;;;28.10;27.80;;;;;;2263995;61;20381;-66
2022/10/14 10:28:18;0.00;0.00;0.62;0.00;0.00;0.62;3.97;3.30;;;28.10;27.80;;;;;;2539444;45;20392;-64
2022/10/14 10:31:29;0.00;0.00;0.62;0.00;0.00;0.62;3.60;2.77;;;28.10;27.80;;;;;;2265734;61;20392;-68
2022/10/14 10:34:59;0.00;0.00;0.62;0.00;0.00;0.62;3.63;2.77;;;28.10;27.80;;;;;;2275117;61;20768;-64
2022/10/14 10:38:02;0.00;0.00;0.62;0.00;0.00;0.62;3.73;3.13;;;28.10;27.70;;;;;;2330945;58;20408;-67
2022/10/14 10:41:07;0.00;0.00;0.62;0.00;0.00;0.62;3.47;3.10;;;28.20;27.80;;;;;;2265356;61;20872;-64
2022/10/14 10:44:27;0.00;0.00;0.62;0.00;0.00;0.62;2.90;2.60;;;28.20;27.80;;;;;;2264914;61;20427;-67
2022/10/14 10:47:30;0.00;0.00;0.62;0.00;0.00;0.62;3.40;2.97;;;28.20;27.80;;;;;;2264951;61;20680;-65
2022/10/14 10:50:30;0.00;0.00;0.62;0.00;0.00;0.62;3.10;2.80;;;28.20;27.70;;;;;;2265577;61;20385;-68
2022/10/14 10:53:31;0.00;0.00;0.62;0.00;0.00;0.62;3.50;3.20;;;28.30;27.80;;;;;;2265577;61;20423;-67
2022/10/14 10:56:27;0.00;0.00;0.62;0.00;0.00;0.62;3.20;2.90;;;28.30;27.70;;;;;;2265349;61;20391;-66
2022/10/14 10:59:49;0.00;0.00;0.62;0.00;0.00;0.62;2.60;2.20;;;28.30;27.70;;;;;;2263434;61;20714;-67
2022/10/14 11:03:00;0.00;0.00;0.62;0.00;0.00;0.62;3.00;2.67;;;28.40;27.80;;;;;;2260559;61;20438;-68
2022/10/14 11:05:59;0.00;0.00;0.62;0.00;0.00;0.62;3.37;3.07;;;28.40;27.80;;;;;;2263396;61;20610;-67
2022/10/14 11:12:14;0.00;0.00;0.62;0.00;0.00;0.62;3.27;2.67;;;28.50;27.90;;;;;;2263059;61;20373;-67
2022/10/14 11:15:18;0.00;0.00;0.62;0.00;0.00;0.62;3.10;2.50;;;28.50;27.90;;;;;;2507040;45;20387;-68